Time;durP1;ratioP1;P1;durP2;ratioP2;P2;SDS_P1;SDS_P2;PMS_P1;PMS_P2;Temp;Humidity;BMP_temperature;BMP_pressure;BME280_temperature;BME280_humidity;BME280_pressure;Samples;Min_cycle;Max_cycle;Signal;HPM_P1;HPM_P2
2021/12/10 00:02:18;;;;;;;;;;;;;;;1.68;100.00;99554.06;5015450;28;19925;-76
2021/12/10 00:04:45;;;;;;;;;;;;;;;1.70;100.00;99555.03;5014959;28;19959;-76
2021/12/10 00:07:13;;;;;;;;;;;;;;;1.75;100.00;99547.47;5016217;28;20380;-76
2021/12/10 00:09:40;;;;;;;;;;;;;;;1.77;100.00;99543.25;5015367;28;19963;-77
2021/12/10 00:12:09;;;;;;;;;;;;;;;1.77;100.00;99544.16;5014827;28;20015;-74
2021/12/10 00:14:35;;;;;;;;;;;;;;;1.75;100.00;99540.56;5014787;28;19983;-77
2021/12/10 00:17:02;;;;;;;;;;;;;;;1.75;100.00;99525.00;5014410;28;19972;-78
2021/12/10 00:19:50;;;;;;;;;;;;;;;1.79;100.00;99523.47;5014832;28;19948;-76
2021/12/10 00:22:33;;;;;;;;;;;;;;;1.82;100.00;99517.50;5015907;28;19920;-77
2021/12/10 00:24:59;;;;;;;;;;;;;;;1.89;100.00;99517.00;5014550;28;19917;-78
2021/12/10 00:27:29;;;;;;;;;;;;;;;1.90;100.00;99513.63;5014492;28;20273;-77
2021/12/10 00:30:03;;;;;;;;;;;;;;;1.94;100.00;99520.72;5014810;28;19913;-76
2021/12/10 00:32:34;;;;;;;;;;;;;;;2.00;100.00;99512.34;4995107;28;19957;-77
2021/12/10 00:35:00;;;;;;;;;;;;;;;2.00;100.00;99497.66;4996865;28;19920;-77
2021/12/10 00:37:26;;;;;;;;;;;;;;;1.98;100.00;99488.91;5014673;28;20007;-76
2021/12/10 00:39:53;;;;;;;;;;;;;;;1.98;100.00;99476.81;5014833;28;20349;-76
2021/12/10 00:42:20;;;;;;;;;;;;;;;2.00;100.00;99473.41;5014042;28;19925;-76
2021/12/10 00:44:46;;;;;;;;;;;;;;;1.98;100.00;99468.13;5013970;28;20012;-76
2021/12/10 00:47:11;;;;;;;;;;;;;;;1.89;100.00;99470.28;5013875;28;19958;-76
2021/12/10 00:49:37;;;;;;;;;;;;;;;1.89;100.00;99463.38;5014639;28;19984;-76
2021/12/10 00:52:03;;;;;;;;;;;;;;;1.87;100.00;99451.16;5013931;28;20330;-77
2021/12/10 00:54:29;;;;;;;;;;;;;;;1.84;100.00;99453.59;5013880;28;19913;-77
2021/12/10 00:56:54;;;;;;;;;;;;;;;1.80;100.00;99447.34;5013906;28;19996;-76
2021/12/10 00:59:20;;;;;;;;;;;;;;;1.79;100.00;99437.81;5013484;28;20346;-77
2021/12/10 01:01:47;;;;;;;;;;;;;;;1.73;100.00;99437.50;5013883;28;19940;-75
2021/12/10 01:04:33;;;;;;;;;;;;;;;1.70;100.00;99429.56;5014503;28;19917;-76
2021/12/10 01:07:00;;;;;;;;;;;;;;;1.65;100.00;99418.06;5013741;28;19971;-76
2021/12/10 01:09:31;;;;;;;;;;;;;;;1.63;100.00;99411.91;5013945;28;19924;-76
2021/12/10 01:12:02;;;;;;;;;;;;;;;1.57;100.00;99404.72;5013517;28;19917;-75
2021/12/10 01:14:52;;;;;;;;;;;;;;;1.55;100.00;99399.44;5013608;28;20350;-76
2021/12/10 01:26:08;;;;;;;;;;;;;;;1.54;100.00;99378.63;4973325;28;20366;-77
2021/12/10 01:28:36;;;;;;;;;;;;;;;1.56;100.00;99372.69;5007561;28;19918;-77
2021/12/10 01:31:01;;;;;;;;;;;;;;;1.55;100.00;99367.44;5013571;28;20319;-76
2021/12/10 01:33:27;;;;;;;;;;;;;;;1.54;100.00;99366.56;5012038;28;20415;-77
2021/12/10 01:35:55;;;;;;;;;;;;;;;1.55;100.00;99370.03;5011601;28;19924;-76
2021/12/10 01:38:22;;;;;;;;;;;;;;;1.52;100.00;99360.38;5013154;28;19967;-77
2021/12/10 01:40:49;;;;;;;;;;;;;;;1.48;100.00;99357.59;5017217;28;19975;-77
2021/12/10 01:43:23;;;;;;;;;;;;;;;1.51;100.00;99357.72;5037177;28;20341;-75
2021/12/10 01:45:49;;;;;;;;;;;;;;;1.47;100.00;99358.41;5036201;28;20011;-77
2021/12/10 01:48:26;;;;;;;;;;;;;;;1.45;100.00;99347.97;5036018;28;19923;-77
2021/12/10 01:50:52;;;;;;;;;;;;;;;1.42;100.00;99351.28;5036374;28;19920;-77
2021/12/10 01:53:20;;;;;;;;;;;;;;;1.43;100.00;99339.22;5036249;28;19923;-77
2021/12/10 01:55:48;;;;;;;;;;;;;;;1.40;100.00;99336.47;5036248;28;19917;-78
2021/12/10 01:58:17;;;;;;;;;;;;;;;1.42;100.00;99337.44;5036605;28;19923;-77
2021/12/10 02:00:44;;;;;;;;;;;;;;;1.42;100.00;99321.88;5036442;28;19967;-76
2021/12/10 02:03:09;;;;;;;;;;;;;;;1.45;100.00;99321.13;5036303;28;20266;-77
2021/12/10 02:05:35;;;;;;;;;;;;;;;1.43;100.00;99314.16;5035958;28;19913;-77
2021/12/10 02:08:01;;;;;;;;;;;;;;;1.41;100.00;99305.44;5035905;28;19920;-77
2021/12/10 02:10:28;;;;;;;;;;;;;;;1.43;100.00;99298.59;5036206;28;19912;-76
2021/12/10 02:12:54;;;;;;;;;;;;;;;1.45;100.00;99295.19;5035689;28;19967;-77
2021/12/10 02:15:21;;;;;;;;;;;;;;;1.48;100.00;99285.84;5036212;28;19916;-78
2021/12/10 02:17:49;;;;;;;;;;;;;;;1.47;100.00;99289.25;5035273;28;19917;-76
2021/12/10 02:20:21;;;;;;;;;;;;;;;1.53;100.00;99286.06;5036073;28;19917;-76
2021/12/10 02:22:48;;;;;;;;;;;;;;;1.55;100.00;99274.03;5035508;28;20345;-76
2021/12/10 02:25:14;;;;;;;;;;;;;;;1.52;100.00;99267.00;5035801;28;19917;-77
2021/12/10 02:27:41;;;;;;;;;;;;;;;1.55;100.00;99263.66;5025179;28;19947;-75
2021/12/10 02:30:07;;;;;;;;;;;;;;;1.55;100.00;99261.06;5035521;28;19916;-76
2021/12/10 02:32:33;;;;;;;;;;;;;;;1.57;100.00;99259.41;5035973;28;19917;-76
2021/12/10 02:34:58;;;;;;;;;;;;;;;1.59;100.00;99255.22;5035919;28;20003;-76
2021/12/10 02:37:24;;;;;;;;;;;;;;;1.60;100.00;99244.00;5035508;28;19916;-77
2021/12/10 02:39:50;;;;;;;;;;;;;;;1.68;100.00;99237.47;5033837;28;19917;-76
2021/12/10 02:42:15;;;;;;;;;;;;;;;1.71;100.00;99231.50;5036396;28;20052;-75
2021/12/10 02:44:41;;;;;;;;;;;;;;;1.77;100.00;99217.13;5036132;28;19964;-76
2021/12/10 02:47:06;;;;;;;;;;;;;;;1.82;100.00;99214.75;5035546;28;19986;-76
2021/12/10 02:49:32;;;;;;;;;;;;;;;1.84;100.00;99218.28;5036117;28;20299;-75
2021/12/10 02:51:57;;;;;;;;;;;;;;;1.86;100.00;99215.75;5035974;28;19924;-76
2021/12/10 02:54:33;;;;;;;;;;;;;;;1.90;100.00;99204.69;5035692;28;20232;-76
2021/12/10 02:57:00;;;;;;;;;;;;;;;1.88;100.00;99201.13;5053355;28;19964;-76
2021/12/10 02:59:27;;;;;;;;;;;;;;;1.92;100.00;99200.44;5035519;28;19916;-76
2021/12/10 03:01:53;;;;;;;;;;;;;;;1.94;100.00;99193.59;5019042;28;19921;-74
2021/12/10 03:04:18;;;;;;;;;;;;;;;1.97;100.00;99193.75;5037334;28;19924;-74
2021/12/10 03:06:51;;;;;;;;;;;;;;;2.00;100.00;99188.69;5039197;28;19924;-76
2021/12/10 03:09:20;;;;;;;;;;;;;;;1.99;100.00;99192.13;5039311;28;19917;-75
2021/12/10 03:11:48;;;;;;;;;;;;;;;2.00;100.00;99187.81;5039234;28;19917;-76
2021/12/10 03:14:15;;;;;;;;;;;;;;;1.97;100.00;99176.47;5039726;28;19923;-75
2021/12/10 03:16:41;;;;;;;;;;;;;;;1.89;100.00;99180.41;5038785;28;19916;-76
2021/12/10 03:19:07;;;;;;;;;;;;;;;1.88;100.00;99178.66;5039936;28;19917;-77
2021/12/10 03:21:33;;;;;;;;;;;;;;;1.88;100.00;99185.53;5039698;28;19923;-75
2021/12/10 03:23:59;;;;;;;;;;;;;;;1.88;100.00;99183.88;5039226;28;19947;-76
2021/12/10 03:26:24;;;;;;;;;;;;;;;1.85;100.00;99170.75;5039468;28;20355;-76
2021/12/10 03:28:52;;;;;;;;;;;;;;;1.87;100.00;99174.28;5039080;28;19912;-77
2021/12/10 03:31:18;;;;;;;;;;;;;;;1.84;100.00;99161.19;5038989;28;19924;-76
2021/12/10 03:33:44;;;;;;;;;;;;;;;1.86;100.00;99163.84;5038851;28;20015;-77
2021/12/10 03:36:10;;;;;;;;;;;;;;;1.83;100.00;99164.59;5038924;28;19952;-78
2021/12/10 03:38:37;;;;;;;;;;;;;;;1.83;100.00;99174.09;5038867;28;19916;-76
2021/12/10 03:41:03;;;;;;;;;;;;;;;1.82;100.00;99169.69;5038378;28;20022;-77
2021/12/10 03:43:28;;;;;;;;;;;;;;;1.83;100.00;99163.69;5038465;28;20449;-76
2021/12/10 03:45:56;;;;;;;;;;;;;;;1.88;100.00;99164.78;5036284;28;20370;-76
2021/12/10 03:48:23;;;;;;;;;;;;;;;1.83;100.00;99166.31;5037964;28;20007;-77
2021/12/10 03:50:48;;;;;;;;;;;;;;;1.84;100.00;99160.31;5038624;28;19956;-77
2021/12/10 03:53:15;;;;;;;;;;;;;;;1.85;100.00;99157.78;5038417;28;20402;-76
2021/12/10 03:55:41;;;;;;;;;;;;;;;1.86;100.00;99143.06;5036945;28;19970;-76
2021/12/10 03:58:06;;;;;;;;;;;;;;;1.84;100.00;99140.41;5038423;28;19916;-76
2021/12/10 04:00:34;;;;;;;;;;;;;;;1.85;100.00;99136.09;5038696;28;19916;-77
2021/12/10 04:03:00;;;;;;;;;;;;;;;1.84;100.00;99137.81;5037245;28;19924;-75
2021/12/10 04:05:25;;;;;;;;;;;;;;;1.86;100.00;99128.38;5038253;28;19921;-77
2021/12/10 04:07:52;;;;;;;;;;;;;;;1.86;100.00;99120.59;5037473;28;19948;-77
2021/12/10 04:10:19;;;;;;;;;;;;;;;1.87;100.00;99122.38;5038158;28;20007;-77
2021/12/10 04:12:45;;;;;;;;;;;;;;;1.88;100.00;99115.47;5037950;28;19916;-78
2021/12/10 04:15:10;;;;;;;;;;;;;;;1.88;100.00;99118.06;5036789;28;19917;-76
2021/12/10 04:17:40;;;;;;;;;;;;;;;1.89;100.00;99112.94;5038084;28;19916;-77
2021/12/10 04:20:07;;;;;;;;;;;;;;;1.87;100.00;99103.31;5037744;28;19948;-76
2021/12/10 04:22:33;;;;;;;;;;;;;;;1.90;100.00;99103.47;5036921;28;20046;-78
2021/12/10 04:24:59;;;;;;;;;;;;;;;1.88;100.00;99106.00;5037702;28;19944;-77
2021/12/10 04:27:24;;;;;;;;;;;;;;;1.88;100.00;99095.59;5037747;28;19917;-77
2021/12/10 04:29:52;;;;;;;;;;;;;;;1.89;100.00;99088.69;5037078;28;19928;-77
2021/12/10 04:32:17;;;;;;;;;;;;;;;1.90;100.00;99087.88;5037784;28;19917;-77
2021/12/10 04:34:43;;;;;;;;;;;;;;;1.90;100.00;99088.75;5037885;28;19963;-77
2021/12/10 04:37:10;;;;;;;;;;;;;;;1.92;100.00;99083.63;5037310;28;20428;-76
2021/12/10 04:39:38;;;;;;;;;;;;;;;1.92;100.00;99075.84;5037496;28;19956;-77
2021/12/10 04:42:04;;;;;;;;;;;;;;;1.94;100.00;99063.81;5037653;28;19920;-77
2021/12/10 04:44:29;;;;;;;;;;;;;;;1.94;100.00;99064.72;5037467;28;19970;-78
2021/12/10 04:46:54;;;;;;;;;;;;;;;1.94;100.00;99071.59;5037313;28;20307;-77
2021/12/10 04:49:20;;;;;;;;;;;;;;;1.94;100.00;99061.22;5037050;28;20002;-77
2021/12/10 04:51:48;;;;;;;;;;;;;;;1.95;100.00;99060.41;5037150;28;19917;-78
2021/12/10 04:54:14;;;;;;;;;;;;;;;2.01;100.00;99068.44;5037622;28;19999;-77
2021/12/10 04:56:40;;;;;;;;;;;;;;;2.01;100.00;99062.38;5037236;28;19923;-77
2021/12/10 04:59:07;;;;;;;;;;;;;;;1.99;100.00;99062.31;5036752;28;19917;-78
2021/12/10 05:01:32;;;;;;;;;;;;;;;2.00;100.00;99048.47;5037694;28;19913;-77
2021/12/10 05:03:58;;;;;;;;;;;;;;;2.02;100.00;99046.84;5054594;28;19921;-77
2021/12/10 05:06:23;;;;;;;;;;;;;;;2.05;100.00;99046.97;5037580;28;19919;-77
2021/12/10 05:08:49;;;;;;;;;;;;;;;2.06;100.00;99043.53;5036984;28;19921;-77
2021/12/10 05:11:14;;;;;;;;;;;;;;;2.09;100.00;99042.78;5017224;28;19925;-78
2021/12/10 05:13:41;;;;;;;;;;;;;;;2.09;100.00;99032.41;5017255;28;20264;-77
2021/12/10 05:16:07;;;;;;;;;;;;;;;2.11;100.00;99031.66;5016560;28;19917;-77
2021/12/10 05:18:37;;;;;;;;;;;;;;;2.15;100.00;99028.34;5035445;28;20582;-78
2021/12/10 05:21:03;;;;;;;;;;;;;;;2.13;100.00;99030.00;5036864;28;20534;-77
2021/12/10 05:23:29;;;;;;;;;;;;;;;2.17;100.00;99028.41;5036629;28;20418;-77
2021/12/10 05:25:54;;;;;;;;;;;;;;;2.18;100.00;99031.91;5036519;28;19917;-77
2021/12/10 05:28:20;;;;;;;;;;;;;;;2.17;100.00;99030.13;5036988;28;19959;-78
2021/12/10 05:30:47;;;;;;;;;;;;;;;2.20;100.00;99027.66;5036371;28;19959;-78
2021/12/10 05:33:18;;;;;;;;;;;;;;;2.18;100.00;99017.19;5036631;28;19917;-77
2021/12/10 05:35:45;;;;;;;;;;;;;;;2.20;100.00;99019.84;5036859;28;19924;-77
2021/12/10 05:38:14;;;;;;;;;;;;;;;2.20;100.00;99025.06;5036689;28;20368;-77
2021/12/10 05:40:39;;;;;;;;;;;;;;;2.19;100.00;99023.25;5036291;28;20023;-77
2021/12/10 05:43:05;;;;;;;;;;;;;;;2.23;100.00;99025.19;5036425;28;20514;-77
2021/12/10 05:45:31;;;;;;;;;;;;;;;2.24;100.00;99027.84;5036671;28;19917;-78
2021/12/10 05:47:57;;;;;;;;;;;;;;;2.27;100.00;99021.84;5019812;28;19921;-76
2021/12/10 05:50:24;;;;;;;;;;;;;;;2.26;100.00;99026.16;5036456;28;19962;-77
2021/12/10 05:52:50;;;;;;;;;;;;;;;2.30;100.00;99011.59;5036508;28;19967;-76
2021/12/10 05:55:15;;;;;;;;;;;;;;;2.30;100.00;99016.78;5036317;28;19956;-77
2021/12/10 05:57:41;;;;;;;;;;;;;;;2.30;100.00;99014.19;5034675;28;19952;-77
2021/12/10 06:00:10;;;;;;;;;;;;;;;2.34;100.00;99014.38;5036103;28;20356;-77
2021/12/10 06:02:36;;;;;;;;;;;;;;;2.36;100.00;99014.41;5017182;28;19952;-78
2021/12/10 06:05:03;;;;;;;;;;;;;;;2.36;100.00;99017.03;5016436;28;19966;-77
2021/12/10 06:07:28;;;;;;;;;;;;;;;2.38;100.00;99015.38;5016897;28;20300;-77
2021/12/10 06:09:54;;;;;;;;;;;;;;;2.40;100.00;99020.66;5016510;28;19979;-77
2021/12/10 06:12:19;;;;;;;;;;;;;;;2.42;100.00;99025.06;5017016;28;19921;-77
2021/12/10 06:14:46;;;;;;;;;;;;;;;2.40;100.00;99028.44;5015426;28;19917;-76
2021/12/10 06:20:17;;;;;;;;;;;;;;;2.47;100.00;99030.44;5015818;28;19917;-75
2021/12/10 06:22:42;;;;;;;;;;;;;;;2.41;100.00;99038.88;5032763;28;19948;-77
2021/12/10 06:25:08;;;;;;;;;;;;;;;2.43;100.00;99036.34;5016466;28;20341;-76
2021/12/10 06:27:36;;;;;;;;;;;;;;;2.37;100.00;99034.38;5019509;28;20399;-77
2021/12/10 06:30:02;;;;;;;;;;;;;;;2.34;100.00;99037.75;5035911;28;20912;-77
2021/12/10 06:32:27;;;;;;;;;;;;;;;2.44;100.00;99041.59;5035781;28;19920;-77
2021/12/10 06:34:53;;;;;;;;;;;;;;;2.43;100.00;99036.34;5034947;28;20268;-75
2021/12/10 06:37:19;;;;;;;;;;;;;;;2.47;100.00;99041.72;5020768;28;19924;-75
2021/12/10 06:39:46;;;;;;;;;;;;;;;2.45;100.00;99038.16;5018205;28;19917;-73
2021/12/10 06:42:11;;;;;;;;;;;;;;;2.42;100.00;99037.16;5019489;28;19920;-75
2021/12/10 06:44:36;;;;;;;;;;;;;;;2.47;100.00;99044.31;5018950;28;19963;-75
2021/12/10 06:47:05;;;;;;;;;;;;;;;2.40;100.00;99044.91;5038494;28;19943;-74
2021/12/10 06:49:33;;;;;;;;;;;;;;;2.38;100.00;99046.56;5039196;28;19916;-74
2021/12/10 06:52:00;;;;;;;;;;;;;;;2.41;100.00;99045.78;5037910;28;19924;-74
2021/12/10 06:54:26;;;;;;;;;;;;;;;2.44;100.00;99052.00;5031016;28;19920;-79
2021/12/10 06:56:52;;;;;;;;;;;;;;;2.40;100.00;99051.81;5018692;28;19921;-75
2021/12/10 06:59:17;;;;;;;;;;;;;;;2.43;100.00;99051.94;5018657;28;20251;-75
2021/12/10 07:01:43;;;;;;;;;;;;;;;2.45;100.00;99060.66;5018646;28;19948;-75
2021/12/10 07:04:11;;;;;;;;;;;;;;;2.45;100.00;99064.16;5018449;28;19917;-75
2021/12/10 07:06:37;;;;;;;;;;;;;;;2.48;100.00;99064.25;5018783;28;20360;-75
2021/12/10 07:09:07;;;;;;;;;;;;;;;2.45;100.00;99064.16;5018380;28;20001;-75
2021/12/10 07:11:33;;;;;;;;;;;;;;;2.47;100.00;99067.72;5036542;28;19917;-75
2021/12/10 07:13:59;;;;;;;;;;;;;;;2.50;100.00;99067.84;5018584;28;19944;-75
2021/12/10 07:16:25;;;;;;;;;;;;;;;2.45;100.00;99069.34;5019555;28;20058;-74
2021/12/10 07:18:51;;;;;;;;;;;;;;;2.44;100.00;99064.09;5037786;28;19917;-76
2021/12/10 07:21:18;;;;;;;;;;;;;;;2.41;100.00;99074.34;5022117;28;19959;-75
2021/12/10 07:23:44;;;;;;;;;;;;;;;2.42;100.00;99073.53;5037995;28;20592;-75
2021/12/10 07:26:10;;;;;;;;;;;;;;;2.39;100.00;99076.88;5032920;28;19917;-74
2021/12/10 07:28:37;;;;;;;;;;;;;;;2.44;100.00;99079.66;5017758;28;19923;-76
2021/12/10 07:31:03;;;;;;;;;;;;;;;2.42;100.00;99082.22;5018247;28;19917;-75
2021/12/10 07:33:29;;;;;;;;;;;;;;;2.43;100.00;99085.72;5018508;28;19920;-75
2021/12/10 07:35:54;;;;;;;;;;;;;;;2.30;100.00;99095.59;5018084;28;20020;-75
2021/12/10 07:38:25;;;;;;;;;;;;;;;2.34;100.00;99094.88;5018214;28;19924;-75
2021/12/10 07:40:51;;;;;;;;;;;;;;;2.27;100.00;99100.69;5038356;28;20004;-75
2021/12/10 07:43:16;;;;;;;;;;;;;;;2.21;100.00;99094.34;5038272;28;20364;-75
2021/12/10 07:45:45;;;;;;;;;;;;;;;2.20;100.00;99092.56;5055115;28;19921;-76
2021/12/10 07:48:12;;;;;;;;;;;;;;;2.21;100.00;99099.56;5037148;28;19920;-76
2021/12/10 07:50:41;;;;;;;;;;;;;;;2.20;100.00;99102.97;5036856;28;19924;-75
2021/12/10 07:53:06;;;;;;;;;;;;;;;2.19;100.00;99102.09;5037704;28;19917;-75
2021/12/10 07:55:33;;;;;;;;;;;;;;;2.20;100.00;99100.38;5038169;28;19923;-75
2021/12/10 07:58:01;;;;;;;;;;;;;;;2.21;100.00;99113.41;5037568;28;20264;-74
2021/12/10 08:00:28;;;;;;;;;;;;;;;2.24;100.00;99110.06;5037900;28;19917;-77
2021/12/10 08:02:54;;;;;;;;;;;;;;;2.25;100.00;99114.41;5037338;28;19924;-76
2021/12/10 08:05:21;;;;;;;;;;;;;;;2.25;100.00;99106.63;5037289;28;19920;-76
2021/12/10 08:07:49;;;;;;;;;;;;;;;2.22;100.00;99106.50;5036543;28;20353;-76
2021/12/10 08:10:15;;;;;;;;;;;;;;;2.28;100.00;99101.56;5036475;28;19932;-76
2021/12/10 08:12:40;;;;;;;;;;;;;;;2.28;100.00;99111.94;5037185;28;19956;-75
2021/12/10 08:15:06;;;;;;;;;;;;;;;2.22;100.00;99117.78;5037190;28;19955;-76
2021/12/10 08:17:33;;;;;;;;;;;;;;;2.29;100.00;99113.72;5037062;28;20589;-76
2021/12/10 08:19:59;;;;;;;;;;;;;;;2.28;100.00;99110.22;5037151;28;20003;-75
2021/12/10 08:22:24;;;;;;;;;;;;;;;2.30;100.00;99118.97;5036707;28;19990;-75
2021/12/10 08:24:49;;;;;;;;;;;;;;;2.30;100.00;99120.69;5036960;28;19944;-76
2021/12/10 08:27:16;;;;;;;;;;;;;;;2.32;100.00;99124.25;5036741;28;19952;-77
2021/12/10 08:29:44;;;;;;;;;;;;;;;2.34;100.00;99114.78;5036576;28;20405;-75
2021/12/10 08:32:12;;;;;;;;;;;;;;;2.37;100.00;99117.53;5036804;28;19963;-75
2021/12/10 08:34:37;;;;;;;;;;;;;;;2.40;100.00;99127.16;5036995;28;19917;-76
2021/12/10 08:37:03;;;;;;;;;;;;;;;2.38;100.00;99126.19;5036177;28;19924;-74
2021/12/10 08:39:29;;;;;;;;;;;;;;;2.40;100.00;99120.25;5036043;28;20012;-75
2021/12/10 08:41:56;;;;;;;;;;;;;;;2.43;100.00;99127.28;5021428;28;19921;-74
2021/12/10 08:44:23;;;;;;;;;;;;;;;2.40;100.00;99125.44;5012994;28;19928;-75
2021/12/10 08:46:49;;;;;;;;;;;;;;;2.37;100.00;99133.09;5013385;28;19925;-75
2021/12/10 08:49:15;;;;;;;;;;;;;;;2.43;100.00;99135.06;5013274;28;20318;-76
2021/12/10 08:51:42;;;;;;;;;;;;;;;2.41;100.00;99139.31;5013528;28;19917;-75
2021/12/10 08:54:10;;;;;;;;;;;;;;;2.43;100.00;99138.56;5013685;28;19984;-74
2021/12/10 08:56:36;;;;;;;;;;;;;;;2.48;100.00;99138.75;5012752;28;20067;-75
2021/12/10 08:59:03;;;;;;;;;;;;;;;2.42;100.00;99135.88;5012726;28;20344;-74
2021/12/10 09:01:31;;;;;;;;;;;;;;;2.41;100.00;99139.31;5012967;28;19913;-73
2021/12/10 09:03:58;;;;;;;;;;;;;;;2.46;100.00;99143.00;5012699;28;20011;-74
2021/12/10 09:06:25;;;;;;;;;;;;;;;2.45;100.00;99147.28;5013518;28;19917;-77
2021/12/10 09:08:52;;;;;;;;;;;;;;;2.43;100.00;99148.06;5012713;28;20021;-73
2021/12/10 09:11:18;;;;;;;;;;;;;;;2.40;100.00;99150.53;5012844;28;20384;-73
2021/12/10 09:13:43;;;;;;;;;;;;;;;2.47;100.00;99150.84;5013022;28;19914;-75
2021/12/10 09:16:16;;;;;;;;;;;;;;;2.43;100.00;99159.34;5012790;28;20408;-74
2021/12/10 09:18:42;;;;;;;;;;;;;;;2.51;100.00;99163.13;5012436;28;19964;-76
2021/12/10 09:21:08;;;;;;;;;;;;;;;2.53;100.00;99160.59;5013018;28;19918;-75
2021/12/10 09:23:34;;;;;;;;;;;;;;;2.48;100.00;99165.59;5013037;28;19917;-74
2021/12/10 09:26:01;;;;;;;;;;;;;;;2.53;100.00;99162.31;5012436;28;19917;-74
2021/12/10 09:28:27;;;;;;;;;;;;;;;2.51;100.00;99170.91;5012615;28;20412;-75
2021/12/10 09:30:54;;;;;;;;;;;;;;;2.56;100.00;99175.44;5012319;28;19924;-74
2021/12/10 09:33:19;;;;;;;;;;;;;;;2.55;100.00;99174.56;5012728;28;19925;-75
2021/12/10 09:35:46;;;;;;;;;;;;;;;2.51;100.00;99168.31;5012563;28;19918;-75
2021/12/10 09:38:14;;;;;;;;;;;;;;;2.47;100.00;99179.44;5012627;28;20273;-74
2021/12/10 09:40:41;;;;;;;;;;;;;;;2.57;100.00;99185.00;5014460;28;19924;-76
2021/12/10 09:43:08;;;;;;;;;;;;;;;2.51;100.00;99181.31;5035920;28;20011;-74
2021/12/10 09:45:35;;;;;;;;;;;;;;;2.53;100.00;99185.69;5035525;28;19921;-75
2021/12/10 09:48:03;;;;;;;;;;;;;;;2.46;100.00;99185.44;5035503;28;19917;-73
2021/12/10 09:50:31;;;;;;;;;;;;;;;2.44;100.00;99188.78;5036109;28;19963;-75
2021/12/10 09:52:58;;;;;;;;;;;;;;;2.45;100.00;99190.56;5035562;28;20356;-76
2021/12/10 09:55:24;;;;;;;;;;;;;;;2.50;100.00;99194.25;5035962;28;19917;-75
2021/12/10 09:57:51;;;;;;;;;;;;;;;2.50;100.00;99202.03;5035622;28;19924;-74
2021/12/10 10:00:21;;;;;;;;;;;;;;;2.49;100.00;99202.88;5035499;28;19924;-75
2021/12/10 10:02:46;;;;;;;;;;;;;;;2.44;100.00;99201.78;5035328;28;20675;-75
2021/12/10 10:05:12;;;;;;;;;;;;;;;2.55;100.00;99194.44;5035908;28;19948;-74
2021/12/10 10:07:38;;;;;;;;;;;;;;;2.60;100.00;99195.53;5035125;28;19967;-75
2021/12/10 10:10:11;;;;;;;;;;;;;;;2.58;100.00;99198.06;5035402;28;20430;-74
2021/12/10 10:12:38;;;;;;;;;;;;;;;2.60;100.00;99198.13;5035277;28;19917;-74
2021/12/10 10:15:06;;;;;;;;;;;;;;;2.61;100.00;99197.28;5034590;28;19924;-75
2021/12/10 10:17:31;;;;;;;;;;;;;;;2.62;100.00;99196.47;5035377;28;19917;-75
2021/12/10 10:19:57;;;;;;;;;;;;;;;2.59;100.00;99193.75;5034985;28;19917;-75
2021/12/10 10:22:25;;;;;;;;;;;;;;;2.68;100.00;99199.31;5034377;28;19921;-75
2021/12/10 10:24:50;;;;;;;;;;;;;;;2.61;100.00;99203.41;5034256;28;19966;-73
2021/12/10 10:27:20;;;;;;;;;;;;;;;2.57;100.00;99204.06;5035203;28;20296;-74
2021/12/10 10:29:52;;;;;;;;;;;;;;;2.66;100.00;99203.59;5034299;28;19917;-74
2021/12/10 10:32:19;;;;;;;;;;;;;;;2.68;100.00;99214.91;5035378;28;20416;-73
2021/12/10 10:34:46;;;;;;;;;;;;;;;2.67;100.00;99197.53;5034446;28;19925;-74
2021/12/10 10:37:12;;;;;;;;;;;;;;;2.63;100.00;99203.44;5034501;28;19921;-75
2021/12/10 10:39:38;;;;;;;;;;;;;;;2.63;100.00;99208.66;5034674;28;19923;-74
2021/12/10 10:42:05;;;;;;;;;;;;;;;2.67;100.00;99203.66;5034486;28;19923;-75
2021/12/10 10:44:31;;;;;;;;;;;;;;;2.72;100.00;99206.44;5034817;28;19917;-73
2021/12/10 10:46:59;;;;;;;;;;;;;;;2.68;100.00;99212.31;5034413;28;20356;-76
2021/12/10 10:49:37;;;;;;;;;;;;;;;2.66;100.00;99209.66;5034367;28;19959;-74
2021/12/10 10:52:12;;;;;;;;;;;;;;;2.63;100.00;99214.72;5034957;28;20011;-74
2021/12/10 10:54:37;;;;;;;;;;;;;;;2.70;100.00;99208.06;5035251;28;20264;-74
2021/12/10 10:57:10;;;;;;;;;;;;;;;2.72;100.00;99214.22;5034515;28;19923;-75
2021/12/10 10:59:35;;;;;;;;;;;;;;;2.78;100.00;99211.88;5034797;28;19956;-75
2021/12/10 11:02:07;;;;;;;;;;;;;;;2.81;100.00;99217.22;5035045;28;19967;-74
2021/12/10 11:04:38;;;;;;;;;;;;;;;2.92;100.00;99219.34;5034856;28;19921;-75
2021/12/10 11:07:15;;;;;;;;;;;;;;;2.90;100.00;99215.78;5034870;28;19917;-75
2021/12/10 11:09:44;;;;;;;;;;;;;;;2.87;100.00;99213.94;5034493;28;19920;-76
2021/12/10 11:12:13;;;;;;;;;;;;;;;2.99;100.00;99218.75;5034554;28;19920;-76
2021/12/10 11:14:48;;;;;;;;;;;;;;;3.09;100.00;99220.88;5034337;28;19916;-80
2021/12/10 11:17:33;;;;;;;;;;;;;;;3.08;100.00;99218.22;5034652;28;19917;-74
2021/12/10 11:20:02;;;;;;;;;;;;;;;3.17;100.00;99224.69;5034207;28;20439;-76
2021/12/10 11:22:33;;;;;;;;;;;;;;;3.17;100.00;99237.72;5034756;28;19916;-74
2021/12/10 11:25:05;;;;;;;;;;;;;;;3.16;100.00;99237.66;5035247;28;19956;-75
2021/12/10 11:27:35;;;;;;;;;;;;;;;3.18;100.00;99234.25;5038753;28;19916;-76
2021/12/10 11:30:00;;;;;;;;;;;;;;;3.26;100.00;99231.06;5038795;28;19912;-75
2021/12/10 11:32:26;;;;;;;;;;;;;;;3.31;100.00;99233.03;5038113;28;19917;-75
2021/12/10 11:34:51;;;;;;;;;;;;;;;3.29;100.00;99239.00;5037669;28;20511;-74
2021/12/10 11:37:18;;;;;;;;;;;;;;;3.31;100.00;99247.75;5037911;28;19917;-79
2021/12/10 11:39:51;;;;;;;;;;;;;;;3.25;100.00;99243.22;5037601;28;20617;-76
2021/12/10 11:42:39;;;;;;;;;;;;;;;3.28;100.00;99238.13;5037872;28;19921;-74
2021/12/10 11:45:28;;;;;;;;;;;;;;;3.24;100.00;99237.09;5038083;28;20070;-75
2021/12/10 11:47:53;;;;;;;;;;;;;;;3.23;100.00;99244.84;5054951;28;20332;-75
2021/12/10 11:50:20;;;;;;;;;;;;;;;3.26;100.00;99244.97;5037528;28;20428;-75
2021/12/10 11:52:58;;;;;;;;;;;;;;;3.28;100.00;99258.94;5036815;28;19949;-76
2021/12/10 11:55:24;;;;;;;;;;;;;;;3.32;100.00;99249.53;5037512;28;20017;-75
2021/12/10 11:57:50;;;;;;;;;;;;;;;3.37;100.00;99253.19;5036982;28;19969;-75
2021/12/10 12:00:18;;;;;;;;;;;;;;;3.38;100.00;99253.25;5037496;28;19917;-76
2021/12/10 12:02:49;;;;;;;;;;;;;;;3.36;100.00;99254.03;5037061;28;19916;-75
2021/12/10 12:05:16;;;;;;;;;;;;;;;3.37;100.00;99259.31;5037063;28;19939;-74
2021/12/10 12:07:43;;;;;;;;;;;;;;;3.38;100.00;99261.06;5036570;28;19924;-75
2021/12/10 12:10:12;;;;;;;;;;;;;;;3.34;100.00;99267.00;5037389;28;20003;-75
2021/12/10 12:12:42;;;;;;;;;;;;;;;3.38;100.00;99270.59;5037136;28;19916;-75
2021/12/10 12:15:21;;;;;;;;;;;;;;;3.32;100.00;99285.97;5037020;28;20406;-74
2021/12/10 12:17:51;;;;;;;;;;;;;;;3.38;100.00;99284.47;5019999;28;20024;-76
2021/12/10 12:20:35;;;;;;;;;;;;;;;3.34;100.00;99285.19;5036854;28;20030;-76
2021/12/10 12:26:07;;;;;;;;;;;;;;;3.39;100.00;99293.19;5054632;28;19947;-75
2021/12/10 12:28:33;;;;;;;;;;;;;;;3.45;100.00;99293.44;5036373;28;19963;-76
2021/12/10 12:30:59;;;;;;;;;;;;;;;3.54;100.00;99303.28;5036373;28;20018;-74
2021/12/10 12:33:26;;;;;;;;;;;;;;;3.35;100.00;99301.69;5036211;28;20028;-74
2021/12/10 12:35:52;;;;;;;;;;;;;;;3.32;100.00;99304.16;5033936;28;19923;-74
2021/12/10 12:38:21;;;;;;;;;;;;;;;3.35;100.00;99306.91;5035272;28;19986;-74
2021/12/10 12:41:03;;;;;;;;;;;;;;;3.35;100.00;99312.09;5035299;28;19959;-73
2021/12/10 12:43:28;;;;;;;;;;;;;;;3.39;100.00;99314.88;5034814;28;19916;-74
2021/12/10 12:46:02;;;;;;;;;;;;;;;3.44;100.00;99315.06;5034876;28;19920;-75
2021/12/10 12:48:29;;;;;;;;;;;;;;;3.35;100.00;99320.78;5034236;28;19916;-74
2021/12/10 12:50:56;;;;;;;;;;;;;;;3.24;100.00;99320.34;5035100;28;19917;-74
2021/12/10 12:53:29;;;;;;;;;;;;;;;3.38;100.00;99322.63;5035225;28;19921;-74
2021/12/10 12:56:00;;;;;;;;;;;;;;;3.39;100.00;99330.50;5034305;28;19971;-73
2021/12/10 12:58:37;;;;;;;;;;;;;;;3.43;100.00;99328.91;5034913;28;19918;-74
2021/12/10 13:01:23;;;;;;;;;;;;;;;3.48;100.00;99331.69;5034605;28;19920;-74
2021/12/10 13:04:01;;;;;;;;;;;;;;;3.56;100.00;99338.97;5034120;28;20352;-74
2021/12/10 13:06:30;;;;;;;;;;;;;;;3.61;100.00;99344.38;5034911;28;19920;-74